sensor_id;sensor_type;location;lat;lon;timestamp;P1;durP1;ratioP1;P2;durP2;ratioP2
51718;SDS011;37795;53.236;5.704;2023-12-20T00:01:49;22.97;;;5.33;;
51718;SDS011;37795;53.236;5.704;2023-12-20T00:04:14;16.37;;;6.00;;
51718;SDS011;37795;53.236;5.704;2023-12-20T00:06:40;12.95;;;5.07;;
51718;SDS011;37795;53.236;5.704;2023-12-20T00:09:06;11.70;;;4.23;;
51718;SDS011;37795;53.236;5.704;2023-12-20T00:11:32;17.00;;;6.13;;
51718;SDS011;37795;53.236;5.704;2023-12-20T00:13:57;14.27;;;5.78;;
51718;SDS011;37795;53.236;5.704;2023-12-20T00:16:23;16.57;;;5.10;;
51718;SDS011;37795;53.236;5.704;2023-12-20T00:18:49;13.73;;;5.13;;
51718;SDS011;37795;53.236;5.704;2023-12-20T00:21:14;13.48;;;5.28;;
51718;SDS011;37795;53.236;5.704;2023-12-20T00:23:40;11.93;;;4.77;;
51718;SDS011;37795;53.236;5.704;2023-12-20T00:26:06;17.80;;;5.37;;
51718;SDS011;37795;53.236;5.704;2023-12-20T00:28:31;13.15;;;4.15;;
51718;SDS011;37795;53.236;5.704;2023-12-20T00:30:57;17.80;;;6.38;;
51718;SDS011;37795;53.236;5.704;2023-12-20T00:33:23;17.85;;;5.32;;
51718;SDS011;37795;53.236;5.704;2023-12-20T00:35:49;11.20;;;5.00;;
51718;SDS011;37795;53.236;5.704;2023-12-20T00:38:14;16.80;;;4.80;;
51718;SDS011;37795;53.236;5.704;2023-12-20T00:40:40;11.13;;;4.78;;
51718;SDS011;37795;53.236;5.704;2023-12-20T00:43:06;13.25;;;6.03;;
51718;SDS011;37795;53.236;5.704;2023-12-20T00:45:31;16.13;;;6.13;;
51718;SDS011;37795;53.236;5.704;2023-12-20T00:47:57;22.17;;;5.90;;
51718;SDS011;37795;53.236;5.704;2023-12-20T00:50:24;19.90;;;5.63;;
51718;SDS011;37795;53.236;5.704;2023-12-20T00:52:50;15.50;;;5.05;;
51718;SDS011;37795;53.236;5.704;2023-12-20T00:55:16;20.83;;;5.82;;
51718;SDS011;37795;53.236;5.704;2023-12-20T00:57:41;16.93;;;5.43;;
51718;SDS011;37795;53.236;5.704;2023-12-20T01:00:07;19.10;;;5.47;;
51718;SDS011;37795;53.236;5.704;2023-12-20T01:02:36;11.07;;;3.50;;
51718;SDS011;37795;53.236;5.704;2023-12-20T01:05:01;10.70;;;4.10;;
51718;SDS011;37795;53.236;5.704;2023-12-20T01:07:28;11.38;;;3.92;;
51718;SDS011;37795;53.236;5.704;2023-12-20T01:09:53;9.20;;;5.32;;
51718;SDS011;37795;53.236;5.704;2023-12-20T01:12:19;9.40;;;4.57;;
51718;SDS011;37795;53.236;5.704;2023-12-20T01:14:45;17.30;;;5.65;;
51718;SDS011;37795;53.236;5.704;2023-12-20T01:17:11;22.05;;;6.68;;
51718;SDS011;37795;53.236;5.704;2023-12-20T01:19:37;12.65;;;5.03;;
51718;SDS011;37795;53.236;5.704;2023-12-20T01:22:03;11.13;;;4.67;;
51718;SDS011;37795;53.236;5.704;2023-12-20T01:24:29;13.60;;;5.45;;
51718;SDS011;37795;53.236;5.704;2023-12-20T01:26:54;16.93;;;6.50;;
51718;SDS011;37795;53.236;5.704;2023-12-20T01:29:20;16.20;;;5.85;;
51718;SDS011;37795;53.236;5.704;2023-12-20T01:31:46;18.55;;;6.20;;
51718;SDS011;37795;53.236;5.704;2023-12-20T01:34:12;11.23;;;5.70;;
51718;SDS011;37795;53.236;5.704;2023-12-20T01:36:37;21.48;;;5.65;;
51718;SDS011;37795;53.236;5.704;2023-12-20T01:39:03;14.10;;;4.72;;
51718;SDS011;37795;53.236;5.704;2023-12-20T01:41:29;14.67;;;5.47;;
51718;SDS011;37795;53.236;5.704;2023-12-20T01:43:55;15.20;;;5.32;;
51718;SDS011;37795;53.236;5.704;2023-12-20T01:46:20;10.35;;;5.53;;
51718;SDS011;37795;53.236;5.704;2023-12-20T01:48:47;13.20;;;6.30;;
51718;SDS011;37795;53.236;5.704;2023-12-20T01:51:13;20.40;;;6.05;;
51718;SDS011;37795;53.236;5.704;2023-12-20T01:53:39;21.35;;;7.10;;
51718;SDS011;37795;53.236;5.704;2023-12-20T01:56:06;13.32;;;7.05;;
51718;SDS011;37795;53.236;5.704;2023-12-20T01:58:32;21.70;;;6.80;;
51718;SDS011;37795;53.236;5.704;2023-12-20T02:00:59;20.88;;;6.13;;
51718;SDS011;37795;53.236;5.704;2023-12-20T02:03:24;16.27;;;5.83;;
51718;SDS011;37795;53.236;5.704;2023-12-20T02:05:50;17.95;;;5.25;;
51718;SDS011;37795;53.236;5.704;2023-12-20T02:08:16;13.47;;;5.53;;
51718;SDS011;37795;53.236;5.704;2023-12-20T02:10:41;11.70;;;4.45;;
51718;SDS011;37795;53.236;5.704;2023-12-20T02:13:08;17.63;;;5.10;;
51718;SDS011;37795;53.236;5.704;2023-12-20T02:15:33;13.40;;;5.05;;
51718;SDS011;37795;53.236;5.704;2023-12-20T02:18:01;21.90;;;6.60;;
51718;SDS011;37795;53.236;5.704;2023-12-20T02:20:27;15.32;;;5.93;;
51718;SDS011;37795;53.236;5.704;2023-12-20T02:22:53;16.60;;;6.47;;
51718;SDS011;37795;53.236;5.704;2023-12-20T02:25:19;14.52;;;5.28;;
51718;SDS011;37795;53.236;5.704;2023-12-20T02:27:45;25.15;;;7.32;;
51718;SDS011;37795;53.236;5.704;2023-12-20T02:30:10;14.93;;;6.22;;
51718;SDS011;37795;53.236;5.704;2023-12-20T02:32:37;22.35;;;7.30;;
51718;SDS011;37795;53.236;5.704;2023-12-20T02:35:02;17.27;;;6.43;;
51718;SDS011;37795;53.236;5.704;2023-12-20T02:37:28;16.80;;;5.70;;
51718;SDS011;37795;53.236;5.704;2023-12-20T02:39:54;14.32;;;6.15;;
51718;SDS011;37795;53.236;5.704;2023-12-20T02:42:20;15.25;;;5.85;;
51718;SDS011;37795;53.236;5.704;2023-12-20T02:44:45;13.77;;;5.93;;
51718;SDS011;37795;53.236;5.704;2023-12-20T02:47:11;17.35;;;6.45;;
51718;SDS011;37795;53.236;5.704;2023-12-20T02:49:37;23.38;;;7.47;;
51718;SDS011;37795;53.236;5.704;2023-12-20T02:52:02;11.00;;;4.47;;
51718;SDS011;37795;53.236;5.704;2023-12-20T02:54:28;13.88;;;5.40;;
51718;SDS011;37795;53.236;5.704;2023-12-20T02:56:54;17.53;;;6.53;;
51718;SDS011;37795;53.236;5.704;2023-12-20T02:59:20;16.33;;;5.90;;
51718;SDS011;37795;53.236;5.704;2023-12-20T03:01:45;15.65;;;5.95;;
51718;SDS011;37795;53.236;5.704;2023-12-20T03:04:11;15.33;;;4.93;;
51718;SDS011;37795;53.236;5.704;2023-12-20T03:06:37;17.90;;;6.05;;
51718;SDS011;37795;53.236;5.704;2023-12-20T03:09:03;18.73;;;6.25;;
51718;SDS011;37795;53.236;5.704;2023-12-20T03:11:29;15.07;;;6.17;;
51718;SDS011;37795;53.236;5.704;2023-12-20T03:13:56;16.08;;;6.35;;
51718;SDS011;37795;53.236;5.704;2023-12-20T03:16:22;10.27;;;4.72;;
51718;SDS011;37795;53.236;5.704;2023-12-20T03:18:48;12.20;;;5.57;;
51718;SDS011;37795;53.236;5.704;2023-12-20T03:21:14;13.48;;;5.95;;
51718;SDS011;37795;53.236;5.704;2023-12-20T03:23:40;19.45;;;6.43;;
51718;SDS011;37795;53.236;5.704;2023-12-20T03:26:09;12.07;;;4.45;;
51718;SDS011;37795;53.236;5.704;2023-12-20T03:28:38;22.40;;;6.37;;
51718;SDS011;37795;53.236;5.704;2023-12-20T03:31:03;24.00;;;6.90;;
51718;SDS011;37795;53.236;5.704;2023-12-20T03:33:29;19.85;;;6.88;;
51718;SDS011;37795;53.236;5.704;2023-12-20T03:35:55;16.53;;;5.83;;
51718;SDS011;37795;53.236;5.704;2023-12-20T03:38:21;18.83;;;7.00;;
51718;SDS011;37795;53.236;5.704;2023-12-20T03:40:49;14.35;;;6.72;;
51718;SDS011;37795;53.236;5.704;2023-12-20T03:43:15;19.55;;;6.15;;
51718;SDS011;37795;53.236;5.704;2023-12-20T03:45:41;11.98;;;5.47;;
51718;SDS011;37795;53.236;5.704;2023-12-20T03:48:07;18.50;;;5.43;;
51718;SDS011;37795;53.236;5.704;2023-12-20T03:50:33;20.77;;;7.47;;
51718;SDS011;37795;53.236;5.704;2023-12-20T03:52:59;13.68;;;5.35;;
51718;SDS011;37795;53.236;5.704;2023-12-20T03:55:25;16.70;;;5.45;;
51718;SDS011;37795;53.236;5.704;2023-12-20T03:57:51;19.87;;;7.70;;
51718;SDS011;37795;53.236;5.704;2023-12-20T04:00:17;20.80;;;7.27;;
51718;SDS011;37795;53.236;5.704;2023-12-20T04:02:43;19.48;;;6.78;;
51718;SDS011;37795;53.236;5.704;2023-12-20T04:05:09;13.47;;;5.97;;
51718;SDS011;37795;53.236;5.704;2023-12-20T04:07:35;16.27;;;5.70;;
51718;SDS011;37795;53.236;5.704;2023-12-20T04:10:01;31.75;;;8.48;;
51718;SDS011;37795;53.236;5.704;2023-12-20T04:12:29;17.63;;;6.00;;
51718;SDS011;37795;53.236;5.704;2023-12-20T04:14:55;23.98;;;8.18;;
51718;SDS011;37795;53.236;5.704;2023-12-20T04:17:22;14.65;;;5.40;;
51718;SDS011;37795;53.236;5.704;2023-12-20T04:19:48;20.02;;;6.53;;
51718;SDS011;37795;53.236;5.704;2023-12-20T04:22:14;20.20;;;7.38;;
51718;SDS011;37795;53.236;5.704;2023-12-20T04:24:40;18.48;;;6.28;;
51718;SDS011;37795;53.236;5.704;2023-12-20T04:27:09;19.48;;;7.32;;
51718;SDS011;37795;53.236;5.704;2023-12-20T04:29:35;18.63;;;7.35;;
51718;SDS011;37795;53.236;5.704;2023-12-20T04:32:00;16.37;;;6.07;;
51718;SDS011;37795;53.236;5.704;2023-12-20T04:34:26;19.42;;;6.68;;
51718;SDS011;37795;53.236;5.704;2023-12-20T04:36:52;17.02;;;5.88;;
51718;SDS011;37795;53.236;5.704;2023-12-20T04:39:18;9.68;;;5.13;;
51718;SDS011;37795;53.236;5.704;2023-12-20T04:41:44;23.93;;;5.93;;
51718;SDS011;37795;53.236;5.704;2023-12-20T04:44:10;18.05;;;6.20;;
51718;SDS011;37795;53.236;5.704;2023-12-20T04:46:35;16.92;;;5.38;;
51718;SDS011;37795;53.236;5.704;2023-12-20T04:49:01;16.20;;;5.47;;
51718;SDS011;37795;53.236;5.704;2023-12-20T04:51:27;17.00;;;7.13;;
51718;SDS011;37795;53.236;5.704;2023-12-20T04:53:53;15.38;;;5.85;;
51718;SDS011;37795;53.236;5.704;2023-12-20T04:56:18;16.40;;;5.07;;
51718;SDS011;37795;53.236;5.704;2023-12-20T04:58:44;17.83;;;6.90;;
51718;SDS011;37795;53.236;5.704;2023-12-20T05:01:10;20.17;;;6.18;;
51718;SDS011;37795;53.236;5.704;2023-12-20T05:03:37;20.77;;;7.65;;
51718;SDS011;37795;53.236;5.704;2023-12-20T05:06:02;18.65;;;6.07;;
51718;SDS011;37795;53.236;5.704;2023-12-20T05:08:28;18.65;;;7.40;;
51718;SDS011;37795;53.236;5.704;2023-12-20T05:10:54;25.45;;;8.40;;
51718;SDS011;37795;53.236;5.704;2023-12-20T05:13:20;20.55;;;6.80;;
51718;SDS011;37795;53.236;5.704;2023-12-20T05:15:46;14.52;;;5.75;;
51718;SDS011;37795;53.236;5.704;2023-12-20T05:18:12;19.17;;;6.13;;
51718;SDS011;37795;53.236;5.704;2023-12-20T05:20:38;17.42;;;5.65;;
51718;SDS011;37795;53.236;5.704;2023-12-20T05:23:04;23.60;;;6.40;;
51718;SDS011;37795;53.236;5.704;2023-12-20T05:25:30;14.98;;;5.05;;
51718;SDS011;37795;53.236;5.704;2023-12-20T05:27:56;17.83;;;6.10;;
51718;SDS011;37795;53.236;5.704;2023-12-20T05:30:21;20.60;;;6.27;;
51718;SDS011;37795;53.236;5.704;2023-12-20T05:32:47;17.00;;;6.10;;
51718;SDS011;37795;53.236;5.704;2023-12-20T05:35:13;19.13;;;6.07;;
51718;SDS011;37795;53.236;5.704;2023-12-20T05:37:40;18.58;;;6.63;;
51718;SDS011;37795;53.236;5.704;2023-12-20T05:40:06;13.88;;;5.22;;
51718;SDS011;37795;53.236;5.704;2023-12-20T05:42:35;16.67;;;6.13;;
51718;SDS011;37795;53.236;5.704;2023-12-20T05:45:02;15.00;;;5.22;;
51718;SDS011;37795;53.236;5.704;2023-12-20T05:47:28;18.58;;;7.57;;
51718;SDS011;37795;53.236;5.704;2023-12-20T05:49:53;14.47;;;5.47;;
51718;SDS011;37795;53.236;5.704;2023-12-20T05:52:19;17.65;;;5.97;;
51718;SDS011;37795;53.236;5.704;2023-12-20T05:54:45;11.17;;;4.83;;
51718;SDS011;37795;53.236;5.704;2023-12-20T05:57:10;16.50;;;6.50;;
51718;SDS011;37795;53.236;5.704;2023-12-20T05:59:36;19.27;;;5.95;;
51718;SDS011;37795;53.236;5.704;2023-12-20T06:02:03;10.47;;;5.03;;
51718;SDS011;37795;53.236;5.704;2023-12-20T06:04:29;14.93;;;5.30;;
51718;SDS011;37795;53.236;5.704;2023-12-20T06:06:55;11.68;;;6.03;;
51718;SDS011;37795;53.236;5.704;2023-12-20T06:09:21;17.70;;;7.13;;
51718;SDS011;37795;53.236;5.704;2023-12-20T06:11:46;20.90;;;7.43;;
51718;SDS011;37795;53.236;5.704;2023-12-20T06:14:12;21.13;;;7.03;;
51718;SDS011;37795;53.236;5.704;2023-12-20T06:16:38;17.50;;;6.95;;
51718;SDS011;37795;53.236;5.704;2023-12-20T06:19:03;17.87;;;6.33;;
51718;SDS011;37795;53.236;5.704;2023-12-20T06:21:29;22.42;;;6.53;;
51718;SDS011;37795;53.236;5.704;2023-12-20T06:23:55;19.58;;;5.53;;
51718;SDS011;37795;53.236;5.704;2023-12-20T06:26:21;20.20;;;7.63;;
51718;SDS011;37795;53.236;5.704;2023-12-20T06:28:46;18.52;;;5.65;;
51718;SDS011;37795;53.236;5.704;2023-12-20T06:31:12;14.60;;;5.97;;
51718;SDS011;37795;53.236;5.704;2023-12-20T06:33:38;13.97;;;6.10;;
51718;SDS011;37795;53.236;5.704;2023-12-20T06:36:06;18.88;;;6.78;;
51718;SDS011;37795;53.236;5.704;2023-12-20T06:38:32;18.27;;;6.30;;
51718;SDS011;37795;53.236;5.704;2023-12-20T06:40:57;18.17;;;5.53;;
51718;SDS011;37795;53.236;5.704;2023-12-20T06:43:24;17.63;;;7.70;;
51718;SDS011;37795;53.236;5.704;2023-12-20T06:52:32;15.20;;;6.68;;
51718;SDS011;37795;53.236;5.704;2023-12-20T06:54:58;14.47;;;5.87;;
51718;SDS011;37795;53.236;5.704;2023-12-20T06:57:23;19.03;;;5.10;;
51718;SDS011;37795;53.236;5.704;2023-12-20T06:59:51;11.32;;;4.50;;
51718;SDS011;37795;53.236;5.704;2023-12-20T07:02:17;13.43;;;5.05;;
51718;SDS011;37795;53.236;5.704;2023-12-20T07:04:43;22.77;;;5.68;;
51718;SDS011;37795;53.236;5.704;2023-12-20T07:07:08;17.38;;;5.25;;
51718;SDS011;37795;53.236;5.704;2023-12-20T07:09:34;14.88;;;5.78;;
51718;SDS011;37795;53.236;5.704;2023-12-20T07:12:00;17.07;;;6.87;;
51718;SDS011;37795;53.236;5.704;2023-12-20T07:14:25;14.27;;;5.53;;
51718;SDS011;37795;53.236;5.704;2023-12-20T07:16:51;12.52;;;5.90;;
51718;SDS011;37795;53.236;5.704;2023-12-20T07:19:17;12.93;;;5.60;;
51718;SDS011;37795;53.236;5.704;2023-12-20T07:21:43;16.67;;;6.25;;
51718;SDS011;37795;53.236;5.704;2023-12-20T07:24:08;14.88;;;5.97;;
51718;SDS011;37795;53.236;5.704;2023-12-20T07:26:34;21.30;;;6.38;;
51718;SDS011;37795;53.236;5.704;2023-12-20T07:29:00;16.13;;;6.43;;
51718;SDS011;37795;53.236;5.704;2023-12-20T07:31:26;14.70;;;6.73;;
51718;SDS011;37795;53.236;5.704;2023-12-20T07:33:51;13.60;;;5.20;;
51718;SDS011;37795;53.236;5.704;2023-12-20T07:36:19;18.50;;;6.72;;
51718;SDS011;37795;53.236;5.704;2023-12-20T07:38:45;17.52;;;5.85;;
51718;SDS011;37795;53.236;5.704;2023-12-20T07:41:10;15.13;;;6.80;;
51718;SDS011;37795;53.236;5.704;2023-12-20T07:43:36;13.73;;;5.72;;
51718;SDS011;37795;53.236;5.704;2023-12-20T07:46:08;18.20;;;5.77;;
51718;SDS011;37795;53.236;5.704;2023-12-20T07:48:34;18.95;;;6.60;;
51718;SDS011;37795;53.236;5.704;2023-12-20T07:51:01;9.02;;;4.45;;
51718;SDS011;37795;53.236;5.704;2023-12-20T07:53:27;6.25;;;3.05;;
51718;SDS011;37795;53.236;5.704;2023-12-20T07:55:53;12.80;;;3.83;;
51718;SDS011;37795;53.236;5.704;2023-12-20T07:58:18;7.63;;;3.20;;
51718;SDS011;37795;53.236;5.704;2023-12-20T08:00:44;8.63;;;3.35;;
51718;SDS011;37795;53.236;5.704;2023-12-20T08:03:10;16.63;;;5.72;;
51718;SDS011;37795;53.236;5.704;2023-12-20T08:05:36;15.73;;;5.22;;
51718;SDS011;37795;53.236;5.704;2023-12-20T08:08:05;15.60;;;6.53;;
51718;SDS011;37795;53.236;5.704;2023-12-20T08:10:31;15.10;;;6.53;;
51718;SDS011;37795;53.236;5.704;2023-12-20T08:12:57;17.42;;;5.80;;
51718;SDS011;37795;53.236;5.704;2023-12-20T08:15:23;18.85;;;6.63;;
51718;SDS011;37795;53.236;5.704;2023-12-20T08:17:49;16.13;;;5.90;;
51718;SDS011;37795;53.236;5.704;2023-12-20T08:20:18;17.30;;;6.10;;
51718;SDS011;37795;53.236;5.704;2023-12-20T08:22:44;17.37;;;5.67;;
51718;SDS011;37795;53.236;5.704;2023-12-20T08:25:09;20.67;;;7.22;;
51718;SDS011;37795;53.236;5.704;2023-12-20T08:27:41;13.43;;;6.07;;
51718;SDS011;37795;53.236;5.704;2023-12-20T08:30:10;20.15;;;6.82;;
51718;SDS011;37795;53.236;5.704;2023-12-20T08:32:37;20.33;;;6.32;;
51718;SDS011;37795;53.236;5.704;2023-12-20T08:35:03;13.90;;;5.97;;
51718;SDS011;37795;53.236;5.704;2023-12-20T08:37:29;19.05;;;6.03;;
51718;SDS011;37795;53.236;5.704;2023-12-20T08:39:55;17.65;;;6.10;;
51718;SDS011;37795;53.236;5.704;2023-12-20T08:42:21;22.17;;;5.75;;
51718;SDS011;37795;53.236;5.704;2023-12-20T08:44:47;14.32;;;5.50;;
51718;SDS011;37795;53.236;5.704;2023-12-20T08:47:12;9.13;;;3.50;;
51718;SDS011;37795;53.236;5.704;2023-12-20T08:49:40;4.82;;;2.47;;
51718;SDS011;37795;53.236;5.704;2023-12-20T08:52:06;8.10;;;2.20;;
51718;SDS011;37795;53.236;5.704;2023-12-20T08:54:32;10.77;;;3.78;;
51718;SDS011;37795;53.236;5.704;2023-12-20T08:56:58;7.00;;;3.30;;
51718;SDS011;37795;53.236;5.704;2023-12-20T08:59:23;13.07;;;3.60;;
51718;SDS011;37795;53.236;5.704;2023-12-20T09:01:49;11.23;;;3.03;;
51718;SDS011;37795;53.236;5.704;2023-12-20T09:04:19;7.72;;;3.00;;
51718;SDS011;37795;53.236;5.704;2023-12-20T09:06:45;5.57;;;2.63;;
51718;SDS011;37795;53.236;5.704;2023-12-20T09:09:11;10.52;;;3.13;;
51718;SDS011;37795;53.236;5.704;2023-12-20T09:11:39;7.95;;;2.70;;
51718;SDS011;37795;53.236;5.704;2023-12-20T09:14:04;12.57;;;3.60;;
51718;SDS011;37795;53.236;5.704;2023-12-20T09:16:30;8.57;;;3.15;;
51718;SDS011;37795;53.236;5.704;2023-12-20T09:18:56;10.30;;;3.17;;
51718;SDS011;37795;53.236;5.704;2023-12-20T09:21:22;8.43;;;3.10;;
51718;SDS011;37795;53.236;5.704;2023-12-20T09:23:48;10.65;;;3.85;;
51718;SDS011;37795;53.236;5.704;2023-12-20T09:26:14;10.13;;;3.10;;
51718;SDS011;37795;53.236;5.704;2023-12-20T09:28:40;10.10;;;4.20;;
51718;SDS011;37795;53.236;5.704;2023-12-20T09:31:05;4.47;;;2.37;;
51718;SDS011;37795;53.236;5.704;2023-12-20T09:33:32;5.68;;;2.00;;
51718;SDS011;37795;53.236;5.704;2023-12-20T09:35:58;5.78;;;2.63;;
51718;SDS011;37795;53.236;5.704;2023-12-20T09:38:24;5.40;;;2.22;;
51718;SDS011;37795;53.236;5.704;2023-12-20T09:40:50;8.87;;;2.40;;
51718;SDS011;37795;53.236;5.704;2023-12-20T09:43:17;6.85;;;3.65;;
51718;SDS011;37795;53.236;5.704;2023-12-20T09:45:47;6.75;;;2.20;;
51718;SDS011;37795;53.236;5.704;2023-12-20T09:48:16;9.20;;;2.97;;
51718;SDS011;37795;53.236;5.704;2023-12-20T09:50:44;5.80;;;2.88;;
51718;SDS011;37795;53.236;5.704;2023-12-20T09:53:10;4.55;;;2.25;;
51718;SDS011;37795;53.236;5.704;2023-12-20T09:55:41;12.57;;;4.40;;
51718;SDS011;37795;53.236;5.704;2023-12-20T09:58:07;7.00;;;3.65;;
51718;SDS011;37795;53.236;5.704;2023-12-20T10:00:34;11.50;;;3.63;;
51718;SDS011;37795;53.236;5.704;2023-12-20T10:03:00;4.82;;;2.15;;
51718;SDS011;37795;53.236;5.704;2023-12-20T10:05:33;7.43;;;2.47;;
51718;SDS011;37795;53.236;5.704;2023-12-20T10:07:59;11.23;;;3.45;;
51718;SDS011;37795;53.236;5.704;2023-12-20T10:10:26;8.38;;;3.05;;
51718;SDS011;37795;53.236;5.704;2023-12-20T10:13:02;9.30;;;3.83;;
51718;SDS011;37795;53.236;5.704;2023-12-20T10:15:35;14.23;;;4.18;;
51718;SDS011;37795;53.236;5.704;2023-12-20T10:18:02;10.90;;;3.93;;
51718;SDS011;37795;53.236;5.704;2023-12-20T10:20:29;7.05;;;3.33;;
51718;SDS011;37795;53.236;5.704;2023-12-20T10:22:55;11.35;;;3.88;;
51718;SDS011;37795;53.236;5.704;2023-12-20T10:25:22;6.90;;;2.65;;
51718;SDS011;37795;53.236;5.704;2023-12-20T10:27:49;6.95;;;3.85;;
51718;SDS011;37795;53.236;5.704;2023-12-20T10:30:15;10.52;;;3.55;;
51718;SDS011;37795;53.236;5.704;2023-12-20T10:32:41;6.60;;;3.30;;
51718;SDS011;37795;53.236;5.704;2023-12-20T10:35:08;5.57;;;2.50;;
51718;SDS011;37795;53.236;5.704;2023-12-20T10:37:37;7.32;;;2.55;;
51718;SDS011;37795;53.236;5.704;2023-12-20T10:40:03;8.53;;;2.77;;
51718;SDS011;37795;53.236;5.704;2023-12-20T10:42:31;7.70;;;2.28;;
51718;SDS011;37795;53.236;5.704;2023-12-20T10:44:59;6.70;;;2.85;;
51718;SDS011;37795;53.236;5.704;2023-12-20T10:52:32;8.13;;;3.95;;
51718;SDS011;37795;53.236;5.704;2023-12-20T10:54:59;7.53;;;3.22;;
51718;SDS011;37795;53.236;5.704;2023-12-20T10:57:25;7.95;;;3.80;;
51718;SDS011;37795;53.236;5.704;2023-12-20T10:59:53;6.22;;;2.85;;
51718;SDS011;37795;53.236;5.704;2023-12-20T11:02:21;8.95;;;3.30;;
51718;SDS011;37795;53.236;5.704;2023-12-20T11:04:50;11.57;;;4.38;;
51718;SDS011;37795;53.236;5.704;2023-12-20T11:07:23;6.63;;;2.75;;
51718;SDS011;37795;53.236;5.704;2023-12-20T11:09:58;12.15;;;3.80;;
51718;SDS011;37795;53.236;5.704;2023-12-20T11:15:13;15.93;;;4.00;;
51718;SDS011;37795;53.236;5.704;2023-12-20T11:17:42;13.45;;;5.45;;
51718;SDS011;37795;53.236;5.704;2023-12-20T11:20:11;7.35;;;3.13;;
51718;SDS011;37795;53.236;5.704;2023-12-20T11:22:37;7.55;;;3.05;;
51718;SDS011;37795;53.236;5.704;2023-12-20T11:27:36;8.52;;;3.03;;
51718;SDS011;37795;53.236;5.704;2023-12-20T11:30:07;7.10;;;2.60;;
51718;SDS011;37795;53.236;5.704;2023-12-20T11:32:35;4.95;;;2.60;;
51718;SDS011;37795;53.236;5.704;2023-12-20T11:37:37;10.70;;;4.50;;
51718;SDS011;37795;53.236;5.704;2023-12-20T11:40:08;10.05;;;4.18;;
51718;SDS011;37795;53.236;5.704;2023-12-20T11:42:49;13.10;;;4.40;;
51718;SDS011;37795;53.236;5.704;2023-12-20T11:45:21;13.57;;;3.97;;
51718;SDS011;37795;53.236;5.704;2023-12-20T11:47:49;8.95;;;3.65;;
51718;SDS011;37795;53.236;5.704;2023-12-20T11:50:19;12.63;;;3.92;;
51718;SDS011;37795;53.236;5.704;2023-12-20T11:52:46;11.13;;;3.80;;
51718;SDS011;37795;53.236;5.704;2023-12-20T11:55:12;15.67;;;4.83;;
51718;SDS011;37795;53.236;5.704;2023-12-20T11:57:38;11.70;;;4.72;;
51718;SDS011;37795;53.236;5.704;2023-12-20T12:00:05;12.75;;;4.80;;
51718;SDS011;37795;53.236;5.704;2023-12-20T12:02:32;14.75;;;5.28;;
51718;SDS011;37795;53.236;5.704;2023-12-20T12:04:59;17.60;;;4.95;;
51718;SDS011;37795;53.236;5.704;2023-12-20T12:07:24;8.32;;;3.83;;
51718;SDS011;37795;53.236;5.704;2023-12-20T12:09:51;11.10;;;3.42;;
51718;SDS011;37795;53.236;5.704;2023-12-20T12:12:17;10.67;;;4.30;;
51718;SDS011;37795;53.236;5.704;2023-12-20T12:14:47;9.73;;;3.50;;
51718;SDS011;37795;53.236;5.704;2023-12-20T12:17:14;10.95;;;4.05;;
51718;SDS011;37795;53.236;5.704;2023-12-20T12:19:41;8.65;;;2.55;;
51718;SDS011;37795;53.236;5.704;2023-12-20T12:24:37;6.35;;;3.15;;
51718;SDS011;37795;53.236;5.704;2023-12-20T12:27:05;11.00;;;3.15;;
51718;SDS011;37795;53.236;5.704;2023-12-20T12:29:32;6.67;;;2.60;;
51718;SDS011;37795;53.236;5.704;2023-12-20T12:31:59;5.68;;;2.30;;
51718;SDS011;37795;53.236;5.704;2023-12-20T12:34:27;11.20;;;3.30;;
51718;SDS011;37795;53.236;5.704;2023-12-20T12:36:53;6.03;;;2.90;;
51718;SDS011;37795;53.236;5.704;2023-12-20T12:39:19;9.02;;;3.38;;
51718;SDS011;37795;53.236;5.704;2023-12-20T12:41:45;8.80;;;3.50;;
51718;SDS011;37795;53.236;5.704;2023-12-20T12:44:10;6.72;;;3.25;;
51718;SDS011;37795;53.236;5.704;2023-12-20T12:46:36;10.43;;;3.30;;
51718;SDS011;37795;53.236;5.704;2023-12-20T12:49:02;5.57;;;2.87;;
51718;SDS011;37795;53.236;5.704;2023-12-20T12:51:28;9.40;;;2.50;;
51718;SDS011;37795;53.236;5.704;2023-12-20T12:53:53;11.55;;;3.63;;
51718;SDS011;37795;53.236;5.704;2023-12-20T12:56:19;6.90;;;2.13;;
51718;SDS011;37795;53.236;5.704;2023-12-20T12:58:45;8.40;;;3.05;;
51718;SDS011;37795;53.236;5.704;2023-12-20T13:01:10;5.63;;;2.35;;
51718;SDS011;37795;53.236;5.704;2023-12-20T13:03:36;7.20;;;3.07;;
51718;SDS011;37795;53.236;5.704;2023-12-20T13:06:02;3.20;;;2.05;;
51718;SDS011;37795;53.236;5.704;2023-12-20T13:08:29;6.80;;;2.22;;
51718;SDS011;37795;53.236;5.704;2023-12-20T13:10:55;3.00;;;2.10;;
51718;SDS011;37795;53.236;5.704;2023-12-20T13:13:23;9.43;;;3.10;;
51718;SDS011;37795;53.236;5.704;2023-12-20T13:15:49;6.53;;;2.70;;
51718;SDS011;37795;53.236;5.704;2023-12-20T13:18:18;6.22;;;2.50;;
51718;SDS011;37795;53.236;5.704;2023-12-20T13:20:44;3.60;;;2.27;;
51718;SDS011;37795;53.236;5.704;2023-12-20T13:23:09;10.13;;;2.70;;
51718;SDS011;37795;53.236;5.704;2023-12-20T13:25:35;6.23;;;2.60;;
51718;SDS011;37795;53.236;5.704;2023-12-20T13:28:01;7.15;;;2.55;;
51718;SDS011;37795;53.236;5.704;2023-12-20T13:30:28;6.18;;;2.42;;
51718;SDS011;37795;53.236;5.704;2023-12-20T13:32:54;6.80;;;2.33;;
51718;SDS011;37795;53.236;5.704;2023-12-20T13:35:20;6.60;;;2.75;;
51718;SDS011;37795;53.236;5.704;2023-12-20T13:37:46;6.05;;;2.40;;
51718;SDS011;37795;53.236;5.704;2023-12-20T13:40:12;5.13;;;2.45;;
51718;SDS011;37795;53.236;5.704;2023-12-20T13:42:38;7.88;;;2.60;;
51718;SDS011;37795;53.236;5.704;2023-12-20T13:45:05;9.77;;;3.15;;
51718;SDS011;37795;53.236;5.704;2023-12-20T13:47:31;4.95;;;2.42;;
51718;SDS011;37795;53.236;5.704;2023-12-20T13:49:57;9.38;;;3.25;;
51718;SDS011;37795;53.236;5.704;2023-12-20T13:52:23;4.85;;;2.00;;
51718;SDS011;37795;53.236;5.704;2023-12-20T13:54:49;7.60;;;3.08;;
51718;SDS011;37795;53.236;5.704;2023-12-20T13:57:15;10.00;;;2.90;;
51718;SDS011;37795;53.236;5.704;2023-12-20T13:59:40;10.90;;;3.22;;
51718;SDS011;37795;53.236;5.704;2023-12-20T14:02:06;10.77;;;3.83;;
51718;SDS011;37795;53.236;5.704;2023-12-20T14:04:32;14.37;;;4.20;;
51718;SDS011;37795;53.236;5.704;2023-12-20T14:06:57;9.25;;;3.45;;
51718;SDS011;37795;53.236;5.704;2023-12-20T14:09:23;7.65;;;3.03;;
51718;SDS011;37795;53.236;5.704;2023-12-20T14:11:49;9.10;;;3.25;;
51718;SDS011;37795;53.236;5.704;2023-12-20T14:14:15;8.93;;;3.60;;
51718;SDS011;37795;53.236;5.704;2023-12-20T14:16:41;11.00;;;3.67;;
51718;SDS011;37795;53.236;5.704;2023-12-20T14:19:10;11.73;;;4.63;;
51718;SDS011;37795;53.236;5.704;2023-12-20T14:21:36;12.30;;;5.03;;
51718;SDS011;37795;53.236;5.704;2023-12-20T14:24:02;10.30;;;4.20;;
51718;SDS011;37795;53.236;5.704;2023-12-20T14:26:29;13.70;;;5.10;;
51718;SDS011;37795;53.236;5.704;2023-12-20T14:28:55;18.38;;;6.68;;
51718;SDS011;37795;53.236;5.704;2023-12-20T14:31:21;17.13;;;5.30;;
51718;SDS011;37795;53.236;5.704;2023-12-20T14:33:49;12.63;;;4.72;;
51718;SDS011;37795;53.236;5.704;2023-12-20T14:36:16;15.43;;;5.90;;
51718;SDS011;37795;53.236;5.704;2023-12-20T14:38:43;14.45;;;6.60;;
51718;SDS011;37795;53.236;5.704;2023-12-20T14:41:09;14.98;;;6.30;;
51718;SDS011;37795;53.236;5.704;2023-12-20T14:43:34;14.87;;;5.70;;
51718;SDS011;37795;53.236;5.704;2023-12-20T14:46:00;15.55;;;5.15;;
51718;SDS011;37795;53.236;5.704;2023-12-20T14:48:26;11.35;;;5.22;;
51718;SDS011;37795;53.236;5.704;2023-12-20T14:50:53;13.93;;;5.65;;
51718;SDS011;37795;53.236;5.704;2023-12-20T14:53:19;16.13;;;4.95;;
51718;SDS011;37795;53.236;5.704;2023-12-20T14:55:45;21.02;;;6.53;;